Time;durP1;ratioP1;P1;durP2;ratioP2;P2;SDS_P1;SDS_P2;PMS_P1;PMS_P2;Temp;Humidity;BMP_temperature;BMP_pressure;BME280_temperature;BME280_humidity;BME280_pressure;Samples;Min_cycle;Max_cycle;Signal;HPM_P1;HPM_P2
2022/11/24 05:00:42;;;;;;;5.72;2.58;;;4.70;99.90;;;;;;5701306;23;21326;-68
2022/11/24 05:03:09;;;;;;;3.05;2.85;;;4.70;99.90;;;;;;4907994;29;20580;-68
2022/11/24 05:05:35;;;;;;;1.70;1.70;;;4.70;99.90;;;;;;4897817;29;20229;-68
2022/11/24 05:08:02;;;;;;;2.50;2.40;;;4.70;99.90;;;;;;4905653;29;20210;-69
2022/11/24 05:10:35;;;;;;;3.08;2.97;;;4.70;99.90;;;;;;4912707;29;20562;-68
2022/11/24 05:13:02;;;;;;;2.00;1.88;;;4.80;99.90;;;;;;4911560;29;20215;-68
2022/11/24 05:15:29;;;;;;;1.98;1.88;;;4.80;99.90;;;;;;4916034;29;20203;-69
2022/11/24 05:17:58;;;;;;;1.88;1.77;;;4.80;99.90;;;;;;4905158;29;20211;-69
2022/11/24 05:20:25;;;;;;;2.75;2.65;;;4.80;99.90;;;;;;4919953;29;20211;-69
2022/11/24 05:22:52;;;;;;;0.80;0.77;;;4.80;99.90;;;;;;4919245;29;20236;-70
2022/11/24 05:25:18;;;;;;;3.28;3.20;;;4.80;99.90;;;;;;4930905;29;20231;-70
2022/11/24 05:27:45;;;;;;;1.15;1.15;;;4.80;99.90;;;;;;4919072;29;20222;-70
2022/11/24 05:30:13;;;;;;;1.65;1.48;;;4.90;99.90;;;;;;4923720;29;20203;-70
2022/11/24 05:32:39;;;;;;;1.48;1.48;;;4.90;99.90;;;;;;4911619;29;20223;-70
2022/11/24 05:35:09;;;;;;;2.55;2.45;;;4.90;99.90;;;;;;4910889;29;20227;-69
2022/11/24 05:37:36;;;;;;;2.05;1.95;;;4.90;99.90;;;;;;4912263;29;20211;-69
2022/11/24 05:40:04;;;;;;;4.55;2.28;;;4.90;99.90;;;;;;4913378;29;20207;-68
2022/11/24 05:42:40;;;;;;;2.03;1.92;;;4.90;99.90;;;;;;4915128;29;20230;-68
2022/11/24 05:45:09;;;;;;;2.67;2.45;;;4.90;99.90;;;;;;4920797;29;20606;-69
2022/11/24 05:47:36;;;;;;;0.90;0.90;;;4.90;99.90;;;;;;4926128;29;20299;-69
2022/11/24 05:50:02;;;;;;;6.55;3.40;;;4.90;99.90;;;;;;4919750;29;20223;-70
2022/11/24 05:52:30;;;;;;;1.88;1.77;;;4.90;99.90;;;;;;4914354;29;20680;-70
2022/11/24 05:54:57;;;;;;;3.92;2.58;;;4.90;99.90;;;;;;4919532;29;20198;-69
2022/11/24 05:57:24;;;;;;;5.60;2.33;;;5.00;99.90;;;;;;4925819;29;20671;-68
2022/11/24 05:59:51;;;;;;;2.22;2.13;;;5.00;99.90;;;;;;4917152;29;20211;-70
2022/11/24 06:02:17;;;;;;;1.85;1.75;;;5.00;99.90;;;;;;4914775;29;20230;-69
2022/11/24 06:04:44;;;;;;;2.22;2.13;;;5.00;99.90;;;;;;4913533;29;20716;-69
2022/11/24 06:07:12;;;;;;;1.55;1.45;;;5.00;99.90;;;;;;4922751;29;20215;-68
2022/11/24 06:09:41;;;;;;;2.30;2.20;;;5.00;99.90;;;;;;4913590;29;20216;-69
2022/11/24 06:12:09;;;;;;;2.20;2.20;;;5.00;99.90;;;;;;4914025;29;20227;-70
2022/11/24 06:14:36;;;;;;;2.83;2.40;;;5.10;99.90;;;;;;4920535;29;20221;-71
2022/11/24 06:17:04;;;;;;;2.90;2.75;;;5.10;99.90;;;;;;4922538;29;20216;-69
2022/11/24 06:19:31;;;;;;;7.32;3.45;;;5.10;99.90;;;;;;4919514;29;20572;-70
2022/11/24 06:21:58;;;;;;;0.82;0.82;;;5.10;99.90;;;;;;4914593;29;20232;-70
2022/11/24 06:24:25;;;;;;;5.55;3.75;;;5.10;99.90;;;;;;4912660;29;20231;-70
2022/11/24 06:26:53;;;;;;;2.00;1.65;;;5.20;99.90;;;;;;4928564;29;20203;-71
2022/11/24 06:29:19;;;;;;;2.45;2.25;;;5.30;99.90;;;;;;4911563;29;20207;-70
2022/11/24 06:31:46;;;;;;;2.13;2.13;;;5.20;99.90;;;;;;4918489;29;20230;-70
2022/11/24 06:34:13;;;;;;;2.25;2.05;;;5.20;99.90;;;;;;4916173;29;20557;-69
2022/11/24 06:36:40;;;;;;;2.40;2.25;;;5.30;99.90;;;;;;4925636;29;20203;-69
2022/11/24 06:39:07;;;;;;;2.72;2.40;;;5.30;99.90;;;;;;4916959;29;20569;-70
2022/11/24 06:41:33;;;;;;;14.43;3.75;;;5.30;99.90;;;;;;4912940;29;20256;-71
2022/11/24 06:44:04;;;;;;;2.33;2.05;;;5.30;99.90;;;;;;4920982;29;20208;-70
2022/11/24 06:46:30;;;;;;;2.85;2.65;;;5.30;99.90;;;;;;4914688;29;20291;-69
2022/11/24 06:48:58;;;;;;;7.35;1.75;;;5.30;99.90;;;;;;4920945;29;20214;-70
2022/11/24 06:51:25;;;;;;;1.58;1.52;;;5.30;99.90;;;;;;4909650;29;20239;-69
2022/11/24 06:53:52;;;;;;;1.60;1.60;;;5.30;99.90;;;;;;4911914;29;20267;-68
2022/11/24 06:56:20;;;;;;;2.40;2.30;;;5.30;99.90;;;;;;4914794;29;20212;-70
2022/11/24 06:58:48;;;;;;;3.22;3.03;;;5.20;99.90;;;;;;4917585;29;20204;-70
2022/11/24 07:01:17;;;;;;;4.97;4.65;;;5.20;99.90;;;;;;4910590;29;20242;-69
2022/11/24 07:03:44;;;;;;;2.15;1.95;;;5.20;99.90;;;;;;4916180;29;20206;-69
2022/11/24 07:06:11;;;;;;;4.10;2.95;;;5.10;99.90;;;;;;4926120;29;20222;-71
2022/11/24 07:08:38;;;;;;;2.35;2.25;;;5.20;99.90;;;;;;4914843;29;20210;-71
2022/11/24 07:11:05;;;;;;;2.95;2.85;;;5.20;99.90;;;;;;4922472;29;20635;-70
2022/11/24 07:13:32;;;;;;;2.35;2.25;;;5.20;99.90;;;;;;4919604;29;20219;-67
2022/11/24 07:15:59;;;;;;;3.38;2.90;;;5.30;99.90;;;;;;4911981;29;20203;-70
2022/11/24 07:18:27;;;;;;;2.08;1.92;;;5.30;99.90;;;;;;4919133;29;20617;-70
2022/11/24 07:20:54;;;;;;;10.43;8.30;;;5.30;99.90;;;;;;4929954;29;20233;-70
2022/11/24 07:23:20;;;;;;;4.00;3.70;;;5.30;99.90;;;;;;4925746;29;20227;-70
2022/11/24 07:25:47;;;;;;;6.47;2.80;;;5.40;99.90;;;;;;4918330;29;20599;-69
2022/11/24 07:28:14;;;;;;;2.10;2.00;;;5.30;99.90;;;;;;4916870;29;20208;-69
2022/11/24 07:30:40;;;;;;;5.30;2.72;;;5.30;99.90;;;;;;4918372;29;20227;-69
2022/11/24 07:33:07;;;;;;;1.73;1.70;;;5.30;99.90;;;;;;4923178;29;20210;-69
2022/11/24 07:35:35;;;;;;;2.33;2.22;;;5.30;99.90;;;;;;4929154;29;20213;-70
2022/11/24 07:38:02;;;;;;;6.82;2.00;;;5.30;99.90;;;;;;4912717;29;20213;-70
2022/11/24 07:40:28;;;;;;;3.15;3.03;;;5.30;99.90;;;;;;4914580;29;20559;-70
2022/11/24 07:42:55;;;;;;;3.75;1.60;;;5.40;99.90;;;;;;4923393;29;20223;-71
2022/11/24 07:45:22;;;;;;;5.65;2.17;;;5.40;99.90;;;;;;4918178;29;20351;-70
2022/11/24 07:47:48;;;;;;;3.30;3.10;;;5.40;99.90;;;;;;4917368;29;20223;-71
2022/11/24 07:50:15;;;;;;;4.00;3.60;;;5.40;99.90;;;;;;4929472;29;20879;-69
2022/11/24 07:52:43;;;;;;;4.53;3.65;;;5.40;99.90;;;;;;4927632;29;20211;-70
2022/11/24 07:55:10;;;;;;;2.33;2.20;;;5.40;99.90;;;;;;4926729;29;20346;-70
2022/11/24 07:57:37;;;;;;;2.85;2.65;;;5.40;99.90;;;;;;4924681;29;20320;-71
2022/11/24 08:00:05;;;;;;;2.80;2.13;;;5.40;99.90;;;;;;4915333;29;20212;-69
2022/11/24 08:02:32;;;;;;;2.58;2.40;;;5.40;99.90;;;;;;4911100;29;20264;-67
2022/11/24 08:04:59;;;;;;;2.67;2.40;;;5.40;99.90;;;;;;4916096;29;20579;-69
2022/11/24 08:07:25;;;;;;;2.15;2.10;;;5.50;99.90;;;;;;4920322;29;20215;-69
2022/11/24 08:09:53;;;;;;;1.95;1.85;;;5.50;99.90;;;;;;4923763;29;20208;-70
2022/11/24 08:12:21;;;;;;;3.13;3.03;;;5.50;99.90;;;;;;4916746;29;20238;-70
2022/11/24 08:14:49;;;;;;;2.38;2.28;;;5.60;99.90;;;;;;4914151;29;20295;-69
2022/11/24 08:17:16;;;;;;;2.60;2.58;;;5.60;99.90;;;;;;4922417;29;20211;-69
2022/11/24 08:19:43;;;;;;;2.42;2.17;;;5.60;99.90;;;;;;4921876;29;20214;-68
2022/11/24 08:22:10;;;;;;;3.65;2.72;;;5.60;99.90;;;;;;4924048;29;20224;-69
2022/11/24 08:24:37;;;;;;;2.60;2.50;;;5.70;99.90;;;;;;4917588;29;20212;-69
2022/11/24 08:27:05;;;;;;;1.90;1.83;;;5.70;99.90;;;;;;4930585;29;20301;-70
2022/11/24 08:29:32;;;;;;;2.28;2.17;;;5.80;99.90;;;;;;4925291;29;20214;-70
2022/11/24 08:31:58;;;;;;;2.63;2.22;;;5.80;99.90;;;;;;4910545;29;20311;-69
2022/11/24 08:34:26;;;;;;;4.53;2.03;;;5.90;99.90;;;;;;4919166;29;20669;-69
2022/11/24 08:36:52;;;;;;;4.05;3.88;;;5.90;99.90;;;;;;4912696;29;20212;-69
2022/11/24 08:39:19;;;;;;;5.60;5.10;;;5.90;99.90;;;;;;4912090;29;20307;-69
2022/11/24 08:41:46;;;;;;;4.75;3.42;;;6.00;99.90;;;;;;4920840;29;20224;-70
2022/11/24 08:44:17;;;;;;;8.95;6.55;;;6.00;99.90;;;;;;4918593;29;20224;-71
2022/11/24 08:46:44;;;;;;;5.68;5.35;;;6.10;99.90;;;;;;4916374;29;20296;-68
2022/11/24 08:49:12;;;;;;;5.35;4.95;;;6.10;99.90;;;;;;4916477;29;20281;-71
2022/11/24 08:51:39;;;;;;;3.08;2.88;;;6.20;99.90;;;;;;4918374;29;20231;-70
2022/11/24 08:54:09;;;;;;;3.58;3.05;;;6.40;99.90;;;;;;4921601;29;20212;-72
2022/11/24 08:56:36;;;;;;;3.33;3.13;;;6.40;99.90;;;;;;4922819;29;20215;-71
2022/11/24 08:59:03;;;;;;;3.17;2.95;;;6.40;99.90;;;;;;4923019;29;20209;-70
2022/11/24 09:01:31;;;;;;;2.60;2.50;;;6.40;99.90;;;;;;4924035;29;20588;-71
2022/11/24 09:03:58;;;;;;;3.25;2.92;;;6.40;99.90;;;;;;4924458;29;20204;-70
2022/11/24 09:06:26;;;;;;;4.80;2.67;;;6.50;99.90;;;;;;4923581;29;20581;-72
2022/11/24 09:08:54;;;;;;;2.25;2.22;;;6.50;99.90;;;;;;4920916;29;20268;-72
2022/11/24 09:11:21;;;;;;;3.15;1.83;;;6.50;99.90;;;;;;4923947;29;20235;-72
2022/11/24 09:13:48;;;;;;;3.05;2.85;;;6.50;99.90;;;;;;4910466;29;20567;-72
2022/11/24 09:16:17;;;;;;;3.42;1.23;;;6.50;99.90;;;;;;4919334;29;20199;-70
2022/11/24 09:18:46;;;;;;;3.08;2.88;;;6.50;99.90;;;;;;4908746;29;20216;-70
2022/11/24 09:21:14;;;;;;;9.85;4.07;;;6.50;99.90;;;;;;4911899;29;20607;-70
2022/11/24 09:23:41;;;;;;;7.60;3.55;;;6.60;99.90;;;;;;4912222;29;20649;-71
2022/11/24 09:26:12;;;;;;;3.35;3.15;;;6.60;99.90;;;;;;4914639;29;20248;-70
2022/11/24 09:28:38;;;;;;;4.00;2.25;;;6.70;99.90;;;;;;4917315;29;20568;-70
2022/11/24 09:31:07;;;;;;;3.75;3.53;;;6.70;99.90;;;;;;4913658;29;20229;-71
2022/11/24 09:33:35;;;;;;;3.65;2.92;;;6.80;99.90;;;;;;4911462;29;20702;-70
2022/11/24 09:36:04;;;;;;;2.60;2.50;;;6.80;99.90;;;;;;4919259;29;20211;-72
2022/11/24 09:38:31;;;;;;;1.77;1.67;;;6.90;99.90;;;;;;4917086;29;20208;-67
2022/11/24 09:41:19;;;;;;;2.00;2.00;;;6.90;99.90;;;;;;4926543;29;20239;-67
2022/11/24 09:43:54;;;;;;;7.15;2.80;;;7.00;99.90;;;;;;4921039;29;20242;-67
2022/11/24 09:46:26;;;;;;;1.73;1.67;;;7.20;99.90;;;;;;4915747;29;20235;-67
2022/11/24 09:48:56;;;;;;;2.20;2.05;;;7.30;99.90;;;;;;4915275;29;20209;-69
2022/11/24 09:51:30;;;;;;;8.73;2.15;;;7.30;99.90;;;;;;4913066;29;20234;-71
2022/11/24 09:54:01;;;;;;;1.50;1.50;;;7.30;99.90;;;;;;4925038;29;20212;-70
2022/11/24 09:56:30;;;;;;;2.97;1.02;;;7.30;99.90;;;;;;4924570;29;20213;-72
2022/11/24 09:59:01;;;;;;;1.60;1.50;;;7.40;99.90;;;;;;4920731;29;20224;-71
2022/11/24 10:01:30;;;;;;;2.30;1.65;;;7.40;99.90;;;;;;4916311;29;20245;-72
2022/11/24 10:03:57;;;;;;;1.52;1.42;;;7.50;99.90;;;;;;4911511;29;20209;-72
2022/11/24 10:06:29;;;;;;;1.55;1.55;;;7.60;99.90;;;;;;4918397;29;20555;-72
2022/11/24 10:09:21;;;;;;;3.33;3.00;;;7.70;99.90;;;;;;4921770;29;20208;-71
2022/11/24 10:11:58;;;;;;;1.95;1.48;;;7.80;99.90;;;;;;4896625;29;20247;-71
2022/11/24 10:14:44;;;;;;;2.55;2.50;;;7.80;99.90;;;;;;4908978;29;20256;-71
2022/11/24 10:17:27;;;;;;;5.68;2.78;;;7.80;99.90;;;;;;4910419;29;20216;-71
2022/11/24 10:20:01;;;;;;;2.00;1.90;;;7.80;99.90;;;;;;4916415;29;20208;-70
2022/11/24 10:22:42;;;;;;;0.90;0.90;;;7.80;99.90;;;;;;4909903;29;20244;-71
2022/11/24 10:25:18;;;;;;;3.22;1.33;;;7.90;99.90;;;;;;4908547;29;20591;-71
2022/11/24 10:27:49;;;;;;;5.57;2.08;;;7.90;99.90;;;;;;4909591;29;20217;-72
2022/11/24 10:30:19;;;;;;;4.75;2.83;;;8.00;99.90;;;;;;4922415;29;20206;-71
2022/11/24 10:32:48;;;;;;;2.03;1.92;;;8.00;99.90;;;;;;4928269;29;20209;-73
2022/11/24 10:35:19;;;;;;;2.13;2.03;;;8.00;99.90;;;;;;4920335;29;20209;-71
2022/11/24 10:37:55;;;;;;;2.80;1.88;;;8.10;99.90;;;;;;4917935;29;20215;-72
2022/11/24 10:40:32;;;;;;;1.63;1.63;;;8.10;99.90;;;;;;4923497;29;20228;-71
2022/11/24 10:42:59;;;;;;;2.20;2.10;;;8.20;99.90;;;;;;4913334;29;20299;-73
2022/11/24 10:45:28;;;;;;;1.83;1.83;;;8.20;99.90;;;;;;4919961;29;20261;-72
2022/11/24 10:47:57;;;;;;;1.50;1.38;;;8.20;99.90;;;;;;4912249;29;20274;-71
2022/11/24 10:50:25;;;;;;;12.52;2.67;;;8.20;99.90;;;;;;4911128;29;20225;-71
2022/11/24 10:53:02;;;;;;;13.40;2.20;;;8.30;99.90;;;;;;4916425;29;20214;-71
2022/11/24 10:55:57;;;;;;;1.55;1.55;;;8.30;99.90;;;;;;4918733;29;20240;-71
2022/11/24 10:58:25;;;;;;;2.60;2.40;;;8.40;99.90;;;;;;4920305;29;20218;-73
2022/11/24 11:00:53;;;;;;;1.75;1.52;;;8.40;99.90;;;;;;4928572;29;20235;-72
2022/11/24 11:03:21;;;;;;;8.20;2.15;;;8.40;99.90;;;;;;4923978;29;20650;-72
2022/11/24 11:05:52;;;;;;;5.25;2.17;;;8.50;99.90;;;;;;4918596;29;20636;-72
2022/11/24 11:08:26;;;;;;;13.60;2.58;;;8.50;99.90;;;;;;4908882;29;20228;-70
2022/11/24 11:11:13;;;;;;;4.53;2.28;;;8.50;99.90;;;;;;4906619;29;20229;-72
2022/11/24 11:13:50;;;;;;;4.65;2.10;;;8.40;99.90;;;;;;4908093;29;20744;-72
2022/11/24 11:16:24;;;;;;;1.33;1.30;;;8.40;99.90;;;;;;4923762;29;20213;-71
2022/11/24 11:18:51;;;;;;;6.38;1.42;;;8.40;99.90;;;;;;4913988;29;20213;-71
2022/11/24 11:21:28;;;;;;;11.10;2.50;;;8.30;99.90;;;;;;4912854;29;20244;-72
2022/11/24 11:23:56;;;;;;;1.42;1.42;;;8.30;99.90;;;;;;4914034;29;20217;-71
2022/11/24 11:26:33;;;;;;;6.88;2.22;;;8.30;99.90;;;;;;4910966;29;20227;-72
2022/11/24 11:29:03;;;;;;;1.65;1.20;;;8.30;99.90;;;;;;4910262;29;20205;-72
2022/11/24 11:31:31;;;;;;;2.15;1.98;;;8.30;99.90;;;;;;4914360;29;20236;-72
2022/11/24 11:34:01;;;;;;;8.52;2.70;;;8.40;99.90;;;;;;4908423;29;20223;-72
2022/11/24 11:36:30;;;;;;;8.38;2.25;;;8.40;99.90;;;;;;4914557;29;20229;-71
2022/11/24 11:38:58;;;;;;;1.80;1.70;;;8.40;99.90;;;;;;4920069;29;20715;-70
2022/11/24 11:41:31;;;;;;;4.63;2.85;;;8.50;99.90;;;;;;4922756;29;20230;-71
2022/11/24 11:44:08;;;;;;;3.10;1.85;;;8.50;99.90;;;;;;4907505;29;20229;-71
2022/11/24 11:46:35;;;;;;;6.95;1.27;;;8.60;99.90;;;;;;4907868;29;20336;-71
2022/11/24 11:49:02;;;;;;;1.60;1.60;;;8.60;99.90;;;;;;4910621;29;20210;-71
2022/11/24 11:52:01;;;;;;;2.58;1.90;;;8.60;99.90;;;;;;4921536;29;20239;-71
2022/11/24 11:54:42;;;;;;;4.10;1.65;;;8.70;99.90;;;;;;4919813;29;20206;-71
2022/11/24 11:57:16;;;;;;;2.40;2.05;;;8.80;99.90;;;;;;4913888;29;20201;-71
2022/11/24 12:00:03;;;;;;;13.70;3.17;;;8.80;99.90;;;;;;4921796;29;20207;-71
2022/11/24 12:03:00;;;;;;;2.05;1.60;;;8.80;99.90;;;;;;4915150;29;20250;-71
2022/11/24 12:05:34;;;;;;;19.52;2.30;;;8.80;99.90;;;;;;4911800;29;20208;-73
2022/11/24 12:08:11;;;;;;;3.00;2.85;;;8.80;99.90;;;;;;4917567;29;20190;-72
2022/11/24 12:10:42;;;;;;;2.35;2.15;;;8.80;99.90;;;;;;4917958;29;20236;-71
2022/11/24 12:13:33;;;;;;;2.65;2.22;;;8.80;99.90;;;;;;4920818;29;20677;-69
2022/11/24 12:16:11;;;;;;;3.92;2.25;;;8.80;99.90;;;;;;4912652;29;20209;-72
2022/11/24 12:18:43;;;;;;;1.55;1.45;;;8.80;99.90;;;;;;4916899;29;20201;-71
2022/11/24 12:21:17;;;;;;;5.00;1.77;;;8.80;99.90;;;;;;4924680;29;20229;-73
2022/11/24 12:23:56;;;;;;;1.95;1.50;;;8.90;99.90;;;;;;4911178;29;20671;-71
2022/11/24 12:26:34;;;;;;;9.10;3.35;;;9.00;99.90;;;;;;4922623;29;20245;-69
2022/11/24 12:29:22;;;;;;;5.47;2.05;;;9.00;99.90;;;;;;4916686;29;20208;-72
2022/11/24 12:31:57;;;;;;;8.05;1.80;;;9.10;99.90;;;;;;4906319;29;20264;-71
2022/11/24 12:34:35;;;;;;;2.58;2.47;;;9.20;99.90;;;;;;4906030;29;20214;-72
2022/11/24 12:37:17;;;;;;;2.95;1.58;;;9.20;99.90;;;;;;4910938;29;20214;-71
2022/11/24 12:39:52;;;;;;;2.78;2.33;;;9.20;99.90;;;;;;4917180;29;20206;-72
2022/11/24 12:42:33;;;;;;;3.85;2.47;;;9.30;99.90;;;;;;4904984;29;20248;-70
2022/11/24 12:45:12;;;;;;;6.57;1.35;;;9.30;99.90;;;;;;4910437;29;20213;-72
2022/11/24 12:47:53;;;;;;;1.90;1.90;;;9.30;99.90;;;;;;4909025;29;20677;-71
2022/11/24 12:50:23;;;;;;;4.15;1.50;;;9.30;99.90;;;;;;4916217;29;20306;-71
2022/11/24 12:52:53;;;;;;;2.05;1.40;;;9.30;99.90;;;;;;4915922;29;20217;-72
2022/11/24 12:55:22;;;;;;;4.03;2.70;;;9.30;99.90;;;;;;4916552;29;20218;-70
2022/11/24 12:57:58;;;;;;;2.28;1.50;;;9.30;99.90;;;;;;4922900;29;20218;-70
2022/11/24 13:00:32;;;;;;;7.53;1.20;;;9.30;99.90;;;;;;4933448;29;20209;-71
2022/11/24 13:03:11;;;;;;;5.85;2.58;;;9.30;99.90;;;;;;4935040;29;20198;-71
2022/11/24 13:05:46;;;;;;;0.90;0.90;;;9.30;99.90;;;;;;4919913;29;20210;-68
2022/11/24 13:08:15;;;;;;;12.15;1.77;;;9.30;99.90;;;;;;4923021;29;20212;-69
2022/11/24 13:10:42;;;;;;;3.65;1.25;;;9.20;99.90;;;;;;4927913;29;20291;-70
2022/11/24 13:13:11;;;;;;;1.60;1.50;;;9.20;99.90;;;;;;4934128;29;20216;-72
2022/11/24 13:16:11;;;;;;;3.78;1.30;;;9.20;99.90;;;;;;4909251;29;20217;-70
2022/11/24 13:18:47;;;;;;;11.27;2.58;;;9.20;99.90;;;;;;4926798;29;20290;-71
2022/11/24 13:21:46;;;;;;;4.90;2.58;;;9.20;99.90;;;;;;4923859;29;20629;-71
2022/11/24 13:24:23;;;;;;;3.80;2.25;;;9.20;99.90;;;;;;4911690;29;20281;-71
2022/11/24 13:26:51;;;;;;;1.50;1.50;;;9.20;99.90;;;;;;4913360;29;20221;-71
2022/11/24 13:29:34;;;;;;;1.45;1.40;;;9.20;99.90;;;;;;4926661;29;20244;-71
2022/11/24 13:32:43;;;;;;;7.65;1.95;;;9.20;99.90;;;;;;4935358;29;20244;-71
2022/11/24 13:35:14;;;;;;;3.60;2.22;;;9.10;99.90;;;;;;4924070;29;20212;-71
2022/11/24 13:37:51;;;;;;;2.45;1.98;;;9.10;99.90;;;;;;4921909;29;20217;-70
2022/11/24 13:40:38;;;;;;;2.03;2.03;;;9.20;99.90;;;;;;4912771;29;20216;-70
2022/11/24 13:43:22;;;;;;;7.28;2.55;;;9.20;99.90;;;;;;4915101;29;20224;-73
2022/11/24 13:45:52;;;;;;;3.17;2.38;;;9.20;99.90;;;;;;4908792;29;20246;-70
2022/11/24 13:48:59;;;;;;;10.32;1.90;;;9.10;99.90;;;;;;4923228;29;20216;-71
2022/11/24 13:51:26;;;;;;;2.15;2.00;;;9.10;99.90;;;;;;4915450;29;20780;-72
2022/11/24 13:53:55;;;;;;;2.08;1.98;;;9.10;99.90;;;;;;4914606;29;20214;-72
2022/11/24 13:56:28;;;;;;;6.22;2.63;;;9.10;99.90;;;;;;4913652;29;20531;-72
2022/11/24 13:58:57;;;;;;;1.85;1.70;;;9.10;99.90;;;;;;4914047;29;20843;-71
2022/11/24 14:01:27;;;;;;;2.80;2.60;;;9.00;99.90;;;;;;4923270;29;20724;-71
2022/11/24 14:04:11;;;;;;;4.57;3.60;;;9.00;99.90;;;;;;4914665;29;20214;-71
2022/11/24 14:06:41;;;;;;;10.95;3.33;;;9.00;99.90;;;;;;4915801;29;20224;-70
2022/11/24 14:09:21;;;;;;;5.65;2.63;;;9.00;99.90;;;;;;4914121;29;20214;-71
2022/11/24 14:12:01;;;;;;;2.80;2.30;;;9.00;99.90;;;;;;4916414;29;20230;-72
2022/11/24 14:14:28;;;;;;;1.73;1.63;;;9.00;99.90;;;;;;4910365;29;20224;-71
2022/11/24 14:17:16;;;;;;;2.05;1.95;;;9.00;99.90;;;;;;4915208;29;20206;-71
2022/11/24 14:19:44;;;;;;;7.53;2.40;;;9.00;99.90;;;;;;4911056;29;20536;-71
2022/11/24 14:22:17;;;;;;;2.30;2.10;;;9.00;99.90;;;;;;4914962;29;20594;-72
2022/11/24 14:24:45;;;;;;;6.97;1.85;;;9.00;99.90;;;;;;4914241;29;20337;-72
2022/11/24 14:27:15;;;;;;;5.18;2.17;;;9.00;99.90;;;;;;4914957;29;20232;-72
2022/11/24 14:29:53;;;;;;;5.68;1.95;;;9.00;99.90;;;;;;4917011;29;20213;-71
2022/11/24 14:32:21;;;;;;;5.47;2.88;;;8.90;99.90;;;;;;4925948;29;20233;-72
2022/11/24 14:34:50;;;;;;;5.43;2.95;;;8.90;99.90;;;;;;4921311;29;20676;-71
2022/11/24 14:37:18;;;;;;;1.60;1.48;;;8.90;99.90;;;;;;4921883;29;20353;-71
2022/11/24 14:39:44;;;;;;;4.53;2.35;;;8.90;99.90;;;;;;4914278;29;20213;-71
2022/11/24 14:42:19;;;;;;;1.70;1.40;;;8.90;99.90;;;;;;4914869;29;20652;-71
2022/11/24 14:44:50;;;;;;;6.38;1.58;;;8.90;99.90;;;;;;4913499;29;20222;-72
2022/11/24 14:47:23;;;;;;;4.70;2.10;;;8.90;99.90;;;;;;4918117;29;20638;-72
2022/11/24 14:49:51;;;;;;;1.55;1.52;;;8.90;99.90;;;;;;4908203;29;20551;-71
2022/11/24 14:52:21;;;;;;;7.78;2.75;;;8.90;99.90;;;;;;4914144;29;20233;-72
2022/11/24 14:54:49;;;;;;;3.70;1.65;;;8.90;99.90;;;;;;4912421;29;20695;-72
2022/11/24 14:57:25;;;;;;;3.30;1.50;;;8.90;99.90;;;;;;4913008;29;20221;-71
2022/11/24 15:00:18;;;;;;;5.15;2.50;;;8.80;99.90;;;;;;4918294;29;20669;-72
2022/11/24 15:02:50;;;;;;;4.45;1.92;;;8.80;99.90;;;;;;4919298;29;20213;-71
2022/11/24 15:05:18;;;;;;;5.80;2.20;;;8.80;99.90;;;;;;4922396;29;20723;-72
2022/11/24 15:07:46;;;;;;;3.45;1.95;;;8.80;99.90;;;;;;4918725;29;20244;-70
2022/11/24 15:10:23;;;;;;;7.35;1.83;;;8.80;99.90;;;;;;4915189;29;20215;-70
2022/11/24 15:12:54;;;;;;;5.43;2.92;;;8.80;99.90;;;;;;4917793;29;20680;-72
2022/11/24 15:15:23;;;;;;;7.40;1.30;;;8.80;99.90;;;;;;4919825;29;20566;-72
2022/11/24 15:17:54;;;;;;;3.17;2.88;;;8.80;99.90;;;;;;4918848;29;20205;-72
2022/11/24 15:20:25;;;;;;;1.48;1.48;;;8.70;99.90;;;;;;4927662;29;20231;-71
2022/11/24 15:23:17;;;;;;;1.35;1.35;;;8.70;99.90;;;;;;4925867;29;20212;-72
2022/11/24 15:25:44;;;;;;;2.38;1.92;;;8.70;99.90;;;;;;4921370;29;20206;-72
2022/11/24 15:28:11;;;;;;;4.85;2.17;;;8.70;99.90;;;;;;4909874;29;20226;-73
2022/11/24 15:30:38;;;;;;;7.10;2.97;;;8.70;99.90;;;;;;4908352;29;20245;-72
2022/11/24 15:33:13;;;;;;;2.55;2.33;;;8.70;99.90;;;;;;4916987;29;20210;-73
2022/11/24 15:35:40;;;;;;;2.78;2.63;;;8.70;99.90;;;;;;4915293;29;20260;-72
2022/11/24 15:38:06;;;;;;;3.33;2.17;;;8.70;99.90;;;;;;4907435;29;20238;-72
2022/11/24 15:40:33;;;;;;;1.75;1.65;;;8.70;99.90;;;;;;4917304;29;20213;-71
2022/11/24 15:43:00;;;;;;;1.60;1.50;;;8.70;99.90;;;;;;4909997;29;20213;-72
2022/11/24 15:45:27;;;;;;;2.30;2.20;;;8.70;99.90;;;;;;4915332;29;20213;-72
2022/11/24 15:47:53;;;;;;;1.55;1.45;;;8.60;99.90;;;;;;4922351;29;20251;-73
2022/11/24 15:50:21;;;;;;;8.27;2.13;;;8.60;99.90;;;;;;4925734;29;20232;-71
2022/11/24 15:52:49;;;;;;;2.50;2.40;;;8.60;99.90;;;;;;4931511;29;20228;-71
2022/11/24 15:55:21;;;;;;;8.23;3.80;;;8.60;99.90;;;;;;4924286;29;20328;-71
2022/11/24 15:57:49;;;;;;;6.50;3.10;;;8.60;99.90;;;;;;4925544;29;20216;-71
2022/11/24 16:00:18;;;;;;;2.90;2.70;;;8.60;99.90;;;;;;4916528;29;20295;-71
2022/11/24 16:02:44;;;;;;;4.00;2.40;;;8.50;99.90;;;;;;4919277;29;20303;-72
2022/11/24 16:05:11;;;;;;;4.32;1.92;;;8.50;99.90;;;;;;4914165;29;20205;-72
2022/11/24 16:07:39;;;;;;;4.53;2.85;;;8.40;99.90;;;;;;4916337;29;20669;-71
2022/11/24 16:10:12;;;;;;;2.30;2.10;;;8.40;99.90;;;;;;4923951;29;20212;-70
2022/11/24 16:12:38;;;;;;;1.35;1.17;;;8.30;99.90;;;;;;4922793;29;20643;-70
2022/11/24 16:15:06;;;;;;;2.17;2.17;;;8.20;99.90;;;;;;4916758;29;20217;-71
2022/11/24 16:17:32;;;;;;;4.43;3.20;;;8.10;99.90;;;;;;4926791;29;20671;-70
2022/11/24 16:19:59;;;;;;;2.55;2.47;;;8.00;99.90;;;;;;4933484;29;20300;-70
2022/11/24 16:22:26;;;;;;;3.25;2.95;;;8.00;99.90;;;;;;4912075;29;20237;-70
2022/11/24 16:24:54;;;;;;;1.98;1.85;;;7.90;99.90;;;;;;4918015;29;20725;-70
2022/11/24 16:27:20;;;;;;;2.20;2.15;;;7.80;99.90;;;;;;4915158;29;20252;-71
2022/11/24 16:29:47;;;;;;;3.92;3.28;;;7.70;99.90;;;;;;4917165;29;20259;-71
2022/11/24 16:32:14;;;;;;;12.98;5.20;;;7.60;99.90;;;;;;4924111;29;20692;-71
2022/11/24 16:34:40;;;;;;;16.83;4.20;;;7.50;99.90;;;;;;4915716;29;20209;-71
2022/11/24 16:37:07;;;;;;;3.65;3.35;;;7.50;99.90;;;;;;4912548;29;20229;-70
2022/11/24 16:39:34;;;;;;;5.25;4.70;;;7.40;99.90;;;;;;4911504;29;20695;-69
2022/11/24 16:42:03;;;;;;;6.40;3.63;;;7.30;99.90;;;;;;4917571;29;20236;-70
2022/11/24 16:44:29;;;;;;;3.05;2.85;;;7.30;99.90;;;;;;4920263;29;20212;-70
2022/11/24 16:46:56;;;;;;;14.13;3.13;;;7.20;99.90;;;;;;4917640;29;20219;-70
2022/11/24 16:49:23;;;;;;;4.53;4.15;;;7.10;99.90;;;;;;4928263;29;20206;-70
2022/11/24 16:51:50;;;;;;;4.40;3.97;;;7.00;99.90;;;;;;4916782;29;20233;-71
2022/11/24 16:54:16;;;;;;;3.70;3.50;;;7.00;99.90;;;;;;4912734;29;20223;-71
2022/11/24 16:56:43;;;;;;;5.43;4.40;;;7.00;99.90;;;;;;4912086;29;20215;-72
2022/11/24 16:59:11;;;;;;;3.53;2.95;;;6.90;99.90;;;;;;4915006;29;20204;-70
2022/11/24 17:01:39;;;;;;;5.45;3.70;;;6.90;99.90;;;;;;4924006;29;20311;-71
2022/11/24 17:04:05;;;;;;;29.08;8.60;;;6.80;99.90;;;;;;4912437;29;20247;-70
2022/11/24 17:06:32;;;;;;;11.25;6.60;;;6.70;99.90;;;;;;4927714;29;20243;-71
2022/11/24 17:09:00;;;;;;;9.20;5.43;;;6.70;99.90;;;;;;4925387;29;20309;-70
2022/11/24 17:11:28;;;;;;;6.57;6.05;;;6.60;99.90;;;;;;4923441;29;20631;-70
2022/11/24 17:13:57;;;;;;;6.03;4.20;;;6.60;99.90;;;;;;4913430;29;20208;-71
2022/11/24 17:16:26;;;;;;;4.07;3.75;;;6.60;99.90;;;;;;4923066;29;20235;-71
2022/11/24 17:18:53;;;;;;;5.22;4.22;;;6.50;99.90;;;;;;4924302;29;20204;-70
2022/11/24 17:21:21;;;;;;;6.18;5.50;;;6.40;99.90;;;;;;4912377;29;20232;-72
2022/11/24 17:23:53;;;;;;;5.05;4.68;;;6.30;99.90;;;;;;4911974;29;20208;-71
2022/11/24 17:26:19;;;;;;;8.52;4.68;;;6.30;99.90;;;;;;4924215;29;20215;-71
2022/11/24 17:28:46;;;;;;;5.38;4.75;;;6.30;99.90;;;;;;4919282;29;20589;-71
2022/11/24 17:31:19;;;;;;;4.82;3.97;;;6.20;99.90;;;;;;4919815;29;20320;-70
2022/11/24 17:33:48;;;;;;;5.55;5.15;;;6.20;99.90;;;;;;4912898;29;20688;-70
2022/11/24 17:36:15;;;;;;;3.05;2.95;;;6.10;99.90;;;;;;4921843;29;20218;-70
2022/11/24 17:38:42;;;;;;;6.22;5.22;;;6.10;99.90;;;;;;4920787;29;20579;-71
2022/11/24 17:41:08;;;;;;;6.57;4.82;;;6.00;99.90;;;;;;4920303;29;20259;-71
2022/11/24 17:43:35;;;;;;;9.73;4.60;;;6.00;99.90;;;;;;4915287;29;20219;-71
2022/11/24 17:46:03;;;;;;;5.72;5.40;;;6.00;99.90;;;;;;4915343;29;20260;-70
2022/11/24 17:48:30;;;;;;;6.95;5.60;;;5.90;99.90;;;;;;4914871;29;20240;-71
2022/11/24 17:51:03;;;;;;;10.82;4.65;;;5.80;99.90;;;;;;4914275;29;20254;-71
2022/11/24 17:53:30;;;;;;;5.50;4.32;;;5.80;99.90;;;;;;4924512;29;20215;-71
2022/11/24 17:55:59;;;;;;;4.93;3.97;;;5.80;99.90;;;;;;4935208;29;20198;-70
2022/11/24 17:58:27;;;;;;;10.18;6.68;;;5.70;99.90;;;;;;4932590;29;20311;-72
2022/11/24 18:00:54;;;;;;;11.85;9.93;;;5.70;99.90;;;;;;4922322;29;20239;-72
2022/11/24 18:03:21;;;;;;;5.93;5.43;;;5.70;99.90;;;;;;4912406;29;20216;-71
2022/11/24 18:05:48;;;;;;;6.45;5.45;;;5.60;99.90;;;;;;4919935;29;20210;-71
2022/11/24 18:08:16;;;;;;;5.70;5.20;;;5.60;99.90;;;;;;4923742;29;20595;-70
2022/11/24 18:10:43;;;;;;;10.65;8.43;;;5.60;99.90;;;;;;4920403;29;20234;-71
2022/11/24 18:13:09;;;;;;;6.80;6.20;;;5.60;99.90;;;;;;4918491;29;20286;-70